Chestnut Mound, Tennessee
Current Conditions -  °F | °C
As of 12:15 PM on Thursday 18 Dec 2014 (Local Time) from KSRB Reporting Station
Overcast Overcast  
Wind Chill:   Ceiling: 3600
Heat Index:   Visibility: 10mi
Dew Point:   Wind: 3mph
Humidity: 87%   Direction: 360°N
Pressure: 30.18"   Gusts: NA
Location:  36.2°N, 85.83°W
Report Text: KSRB 181815Z AUTO 36003KT 10SM SCT011 OVC036 03/01 A3018 RMK
Loading
Personal Weather Stations






























Interactive Weather Map New forecast layout! Learn more

10-Day Weather Forecast

Advertisements
Track Severe Weather on mobile